createdAt,value
2019-05-17T00:29:39.678Z,12.30
2019-05-17T00:59:47.365Z,12.20
2019-05-17T01:30:02.651Z,11.70
2019-05-17T02:00:09.659Z,11.60
2019-05-17T02:30:14.467Z,11.50
2019-05-17T03:00:17.222Z,10.90
2019-05-17T03:30:25.248Z,10.80
2019-05-17T04:00:24.694Z,10.30
2019-05-17T04:30:27.304Z,10.40
2019-05-17T05:00:29.929Z,10.60
2019-05-17T05:30:32.534Z,10.30
2019-05-17T06:00:35.246Z,10.90
2019-05-17T06:30:42.706Z,12.00
2019-05-17T07:00:46.938Z,13.20
2019-05-17T07:30:50.389Z,14.60
2019-05-17T08:00:53.132Z,15.50
2019-05-17T08:30:55.750Z,16.10
2019-05-17T09:01:01.011Z,16.70
2019-05-17T09:31:03.637Z,17.70
2019-05-17T10:01:06.261Z,17.80
2019-05-17T10:31:11.310Z,18.70
2019-05-17T11:01:14.241Z,19.80
2019-05-17T11:31:16.865Z,20.20
2019-05-17T12:01:19.481Z,21.60
2019-05-17T12:31:22.093Z,20.70
2019-05-17T13:01:24.719Z,21.60
2019-05-17T13:31:27.354Z,21.90
2019-05-17T14:01:29.966Z,22.80
2019-05-17T14:31:32.770Z,22.80
2019-05-17T15:01:38.304Z,23.60
2019-05-17T15:31:40.947Z,25.50
2019-05-17T16:01:43.580Z,26.40
2019-05-17T16:31:49.306Z,25.00
2019-05-17T17:01:51.998Z,24.90
2019-05-17T17:31:54.630Z,25.30
2019-05-17T18:01:58.042Z,23.90
2019-05-17T18:32:00.792Z,22.10
2019-05-17T19:02:05.589Z,21.20
2019-05-17T19:32:08.274Z,20.30
2019-05-17T20:02:12.132Z,19.70
2019-05-17T20:32:15.000Z,19.50
2019-05-17T21:02:17.622Z,19.00
2019-05-17T21:32:20.305Z,18.40
2019-05-17T22:02:23.041Z,17.80
2019-05-17T22:32:25.624Z,17.40
2019-05-17T23:02:30.319Z,17.30
2019-05-17T23:32:32.928Z,16.90
